Time;durP1;ratioP1;P1;durP2;ratioP2;P2;SDS_P1;SDS_P2;PMS_P1;PMS_P2;Temp;Humidity;BMP_temperature;BMP_pressure;BME280_temperature;BME280_humidity;BME280_pressure;Samples;Min_cycle;Max_cycle;Signal;HPM_P1;HPM_P2
2022/02/26 00:01:07;;;;;;;0.00;0.00;;;8.90;96.70;;;;;;4982002;28;20569;-79
2022/02/26 00:03:36;;;;;;;0.38;0.10;;;8.90;96.70;;;;;;4980804;28;20050;-79
2022/02/26 00:06:06;;;;;;;0.10;0.10;;;8.80;96.70;;;;;;4981249;28;20046;-79
2022/02/26 00:08:36;;;;;;;0.20;0.10;;;8.70;96.70;;;;;;4986229;28;20061;-79
2022/02/26 00:11:04;;;;;;;1.02;0.00;;;8.70;96.70;;;;;;4986394;28;20101;-79
2022/02/26 00:13:33;;;;;;;0.20;0.00;;;8.70;96.70;;;;;;4987931;28;20062;-79
2022/02/26 00:16:01;;;;;;;0.00;0.00;;;8.60;96.70;;;;;;5002743;28;20460;-79
2022/02/26 00:18:28;;;;;;;0.28;0.00;;;8.60;96.70;;;;;;4983873;28;20113;-79
2022/02/26 00:20:56;;;;;;;0.00;0.00;;;8.50;96.70;;;;;;4983823;28;20042;-77
2022/02/26 00:23:26;;;;;;;0.00;0.00;;;8.50;96.70;;;;;;4991553;28;20415;-77
2022/02/26 00:25:54;;;;;;;0.15;0.00;;;8.50;96.70;;;;;;4983655;28;20089;-79
2022/02/26 00:28:22;;;;;;;1.13;0.00;;;8.40;96.70;;;;;;4982600;28;20034;-79
2022/02/26 00:30:51;;;;;;;0.00;0.00;;;8.30;96.70;;;;;;4999618;28;20085;-79
2022/02/26 00:33:19;;;;;;;0.00;0.00;;;8.30;96.70;;;;;;4987044;28;20503;-79
2022/02/26 00:35:47;;;;;;;0.00;0.00;;;8.30;96.70;;;;;;4995457;28;20045;-79
2022/02/26 00:38:15;;;;;;;0.25;0.00;;;8.30;96.70;;;;;;4983994;28;20168;-78
2022/02/26 00:40:46;;;;;;;0.13;0.00;;;8.20;96.70;;;;;;4985509;28;20046;-78
2022/02/26 00:43:14;;;;;;;0.00;0.00;;;8.10;96.70;;;;;;4984182;28;20050;-79
2022/02/26 00:45:42;;;;;;;0.00;0.00;;;8.10;96.70;;;;;;4982907;28;20555;-79
2022/02/26 00:48:10;;;;;;;0.00;0.00;;;8.00;96.70;;;;;;4999419;28;20050;-79
2022/02/26 00:50:38;;;;;;;0.00;0.00;;;8.00;96.70;;;;;;4980771;28;20493;-78
2022/02/26 00:53:08;;;;;;;0.00;0.00;;;8.10;96.70;;;;;;4997460;28;20053;-79
2022/02/26 00:55:36;;;;;;;0.00;0.00;;;8.00;96.70;;;;;;4985107;28;20046;-79
2022/02/26 00:58:06;;;;;;;0.00;0.00;;;8.00;96.70;;;;;;4983247;28;20486;-78
2022/02/26 01:00:36;;;;;;;1.25;0.00;;;8.00;96.70;;;;;;4998393;28;20042;-79
2022/02/26 01:03:04;;;;;;;0.00;0.00;;;8.00;96.70;;;;;;4982799;28;20038;-78
2022/02/26 01:05:33;;;;;;;0.00;0.00;;;8.00;96.70;;;;;;4984397;28;20464;-78
2022/02/26 01:08:01;;;;;;;0.10;0.00;;;8.00;96.70;;;;;;4984330;28;20054;-78
2022/02/26 01:10:32;;;;;;;1.45;0.20;;;8.00;96.70;;;;;;4987214;28;20042;-78
2022/02/26 01:13:00;;;;;;;0.20;0.05;;;8.00;96.70;;;;;;4983998;28;20052;-78
2022/02/26 01:15:30;;;;;;;1.15;0.40;;;8.00;96.70;;;;;;4997506;28;20140;-78
2022/02/26 01:17:58;;;;;;;1.10;0.38;;;8.00;96.70;;;;;;4982684;28;20070;-79
2022/02/26 01:20:26;;;;;;;0.20;0.10;;;8.10;96.70;;;;;;4986460;28;20657;-78
2022/02/26 01:22:57;;;;;;;0.10;0.10;;;8.00;96.70;;;;;;4997220;28;20378;-78
2022/02/26 01:25:25;;;;;;;0.60;0.30;;;8.10;96.70;;;;;;4986301;28;20038;-78
2022/02/26 01:27:53;;;;;;;0.10;0.10;;;8.10;96.70;;;;;;4997684;28;20050;-78
2022/02/26 01:30:21;;;;;;;1.05;0.20;;;8.10;96.70;;;;;;4984887;28;20124;-78
2022/02/26 01:32:50;;;;;;;0.15;0.10;;;8.10;96.70;;;;;;4981436;28;20133;-78
2022/02/26 01:35:19;;;;;;;0.30;0.15;;;8.10;96.70;;;;;;4993796;28;20519;-79
2022/02/26 01:37:47;;;;;;;0.03;0.00;;;8.00;96.70;;;;;;4982680;28;20046;-78
2022/02/26 01:40:16;;;;;;;0.10;0.10;;;8.10;96.70;;;;;;4986501;28;20121;-79
2022/02/26 01:42:44;;;;;;;0.25;0.10;;;8.10;96.70;;;;;;4988686;28;20060;-79
2022/02/26 01:45:14;;;;;;;0.25;0.10;;;8.10;96.70;;;;;;4983996;28;20042;-78
2022/02/26 01:47:42;;;;;;;0.20;0.10;;;8.10;96.70;;;;;;4993963;28;20045;-78
2022/02/26 01:50:15;;;;;;;1.17;0.20;;;8.10;96.70;;;;;;4985557;28;20581;-78
2022/02/26 01:52:43;;;;;;;0.10;0.00;;;8.10;96.70;;;;;;4981890;28;20435;-78
2022/02/26 01:55:11;;;;;;;0.60;0.00;;;8.10;96.70;;;;;;4978071;28;20526;-79
2022/02/26 01:57:40;;;;;;;0.30;0.17;;;8.00;96.70;;;;;;4996315;28;20065;-79
2022/02/26 02:00:10;;;;;;;0.30;0.10;;;8.10;96.70;;;;;;4982774;28;20038;-78
2022/02/26 02:02:38;;;;;;;0.13;0.00;;;8.10;96.70;;;;;;4965026;28;20500;-78
2022/02/26 02:05:11;;;;;;;0.60;0.10;;;8.10;96.70;;;;;;4980007;28;20602;-78
2022/02/26 02:07:40;;;;;;;0.82;0.40;;;8.20;96.70;;;;;;4983237;28;20687;-78
2022/02/26 02:10:10;;;;;;;0.20;0.10;;;8.20;96.70;;;;;;4983339;28;20042;-79
2022/02/26 02:12:40;;;;;;;1.10;0.20;;;8.20;96.70;;;;;;4980489;28;20038;-78
2022/02/26 02:15:08;;;;;;;0.77;0.20;;;8.20;96.70;;;;;;4979968;28;20054;-79
2022/02/26 02:17:37;;;;;;;0.73;0.10;;;8.20;96.70;;;;;;4989519;28;20038;-78
2022/02/26 02:20:07;;;;;;;0.30;0.10;;;8.20;96.70;;;;;;4983884;28;20042;-79
2022/02/26 02:22:37;;;;;;;2.45;0.10;;;8.20;96.70;;;;;;4997891;28;20073;-79
2022/02/26 02:25:06;;;;;;;0.10;0.00;;;8.20;96.70;;;;;;4986039;28;20046;-79
2022/02/26 02:27:34;;;;;;;0.10;0.00;;;8.20;96.70;;;;;;4984286;28;20314;-78
2022/02/26 02:30:03;;;;;;;0.20;0.00;;;8.20;96.70;;;;;;4996596;28;20051;-78
2022/02/26 02:32:32;;;;;;;0.50;0.10;;;8.20;96.70;;;;;;4984610;28;20523;-78
2022/02/26 02:35:00;;;;;;;0.98;0.00;;;8.20;96.70;;;;;;4994720;28;20482;-78
2022/02/26 02:37:28;;;;;;;0.28;0.03;;;8.20;96.70;;;;;;4983920;28;20034;-79
2022/02/26 02:39:58;;;;;;;0.17;0.00;;;8.20;96.70;;;;;;4996291;28;20145;-79
2022/02/26 02:42:27;;;;;;;0.98;0.20;;;8.30;96.70;;;;;;4996996;28;20046;-79
2022/02/26 02:44:55;;;;;;;0.00;0.00;;;8.30;96.70;;;;;;4984727;28;20499;-79
2022/02/26 02:47:24;;;;;;;0.05;0.00;;;8.30;96.70;;;;;;4992093;28;20555;-79
2022/02/26 02:49:52;;;;;;;0.15;0.10;;;8.30;96.70;;;;;;4988266;28;20057;-79
2022/02/26 02:52:22;;;;;;;0.25;0.00;;;8.30;96.70;;;;;;4988418;28;20110;-79
2022/02/26 02:54:50;;;;;;;0.20;0.00;;;8.30;96.70;;;;;;4982639;28;20042;-79
2022/02/26 02:57:19;;;;;;;0.20;0.05;;;8.30;96.70;;;;;;5001090;28;20734;-79
2022/02/26 02:59:48;;;;;;;0.10;0.10;;;8.20;96.70;;;;;;4981676;28;20497;-79
2022/02/26 03:02:16;;;;;;;0.32;0.10;;;8.30;96.70;;;;;;4984396;28;20053;-79
2022/02/26 03:04:44;;;;;;;0.13;0.00;;;8.20;96.70;;;;;;4986880;28;20043;-79
2022/02/26 03:07:13;;;;;;;0.03;0.00;;;8.20;96.70;;;;;;4988982;28;20050;-79
2022/02/26 03:09:41;;;;;;;0.20;0.10;;;8.10;96.70;;;;;;4983660;28;20053;-80
2022/02/26 03:12:09;;;;;;;1.98;0.13;;;8.20;96.70;;;;;;4984806;28;20038;-79
2022/02/26 03:14:39;;;;;;;0.13;0.10;;;8.20;96.70;;;;;;4986848;28;20088;-79
2022/02/26 03:17:08;;;;;;;1.33;0.08;;;8.20;96.70;;;;;;4988598;28;20054;-79
2022/02/26 03:19:37;;;;;;;0.00;0.00;;;8.20;96.70;;;;;;5000108;28;20104;-80
2022/02/26 03:22:06;;;;;;;0.20;0.05;;;8.20;96.70;;;;;;4987200;28;20046;-79
2022/02/26 03:24:35;;;;;;;0.73;0.10;;;8.20;96.70;;;;;;4986849;28;20487;-79
2022/02/26 03:27:04;;;;;;;0.40;0.00;;;8.20;96.70;;;;;;4984770;28;20124;-79
2022/02/26 03:29:33;;;;;;;0.25;0.10;;;8.20;96.70;;;;;;4987764;28;20039;-79
2022/02/26 03:32:04;;;;;;;0.20;0.10;;;8.30;96.70;;;;;;4982512;28;20034;-79
2022/02/26 03:34:33;;;;;;;0.20;0.05;;;8.20;96.70;;;;;;4987411;28;20043;-79
2022/02/26 03:37:02;;;;;;;0.52;0.10;;;8.30;96.70;;;;;;4999649;28;20943;-79
2022/02/26 03:39:35;;;;;;;0.20;0.00;;;8.30;96.70;;;;;;4987148;28;20058;-79
2022/02/26 03:42:05;;;;;;;0.32;0.03;;;8.30;96.70;;;;;;4984667;28;20515;-79
2022/02/26 03:44:34;;;;;;;0.70;0.10;;;8.40;96.70;;;;;;4985179;28;20066;-79
2022/02/26 03:47:05;;;;;;;0.30;0.10;;;8.40;96.70;;;;;;4982330;28;20435;-79
2022/02/26 03:49:33;;;;;;;0.30;0.10;;;8.40;96.70;;;;;;4987635;28;20480;-79
2022/02/26 03:52:02;;;;;;;0.13;0.00;;;8.40;96.70;;;;;;4985948;28;20358;-79
2022/02/26 03:54:30;;;;;;;0.13;0.05;;;8.40;96.70;;;;;;4988922;28;20439;-80
2022/02/26 03:56:58;;;;;;;0.43;0.15;;;8.30;96.70;;;;;;4983968;28;20042;-80
2022/02/26 03:59:27;;;;;;;0.77;0.20;;;8.40;96.70;;;;;;4988428;28;20046;-79
2022/02/26 04:01:55;;;;;;;0.68;0.25;;;8.40;96.70;;;;;;4998200;28;20097;-80
2022/02/26 04:04:25;;;;;;;1.10;0.20;;;8.40;96.70;;;;;;4999924;28;20506;-79
2022/02/26 04:06:55;;;;;;;0.55;0.05;;;8.40;96.70;;;;;;4984886;28;20463;-80
2022/02/26 04:09:24;;;;;;;0.52;0.00;;;8.40;96.70;;;;;;4998696;28;20491;-79
2022/02/26 04:11:52;;;;;;;0.90;0.10;;;8.40;96.70;;;;;;4984884;28;20550;-79
2022/02/26 04:14:21;;;;;;;0.82;0.10;;;8.40;96.70;;;;;;4998136;28;20189;-80
2022/02/26 04:16:49;;;;;;;0.13;0.10;;;8.40;96.70;;;;;;4984429;28;20132;-80
2022/02/26 04:19:17;;;;;;;0.57;0.00;;;8.40;96.70;;;;;;4987227;28;20042;-80
2022/02/26 04:21:49;;;;;;;0.70;0.20;;;8.30;96.70;;;;;;4982108;28;20041;-79
2022/02/26 04:24:18;;;;;;;0.35;0.00;;;8.30;96.70;;;;;;4986411;28;20066;-80
2022/02/26 04:26:46;;;;;;;0.98;0.03;;;8.30;96.70;;;;;;4976042;28;20580;-80
2022/02/26 04:29:14;;;;;;;2.08;0.45;;;8.20;96.70;;;;;;4967338;28;20045;-80
2022/02/26 04:31:43;;;;;;;0.10;0.00;;;8.20;96.70;;;;;;4988156;28;20046;-80
2022/02/26 04:34:11;;;;;;;0.00;0.00;;;8.20;96.70;;;;;;4987163;28;20124;-80
2022/02/26 04:36:39;;;;;;;0.13;0.00;;;8.20;96.70;;;;;;4985209;28;20042;-80
2022/02/26 04:39:09;;;;;;;0.35;0.10;;;8.20;96.70;;;;;;4984156;28;20416;-80
2022/02/26 04:41:37;;;;;;;2.53;0.52;;;8.20;96.70;;;;;;4998529;28;20047;-80
2022/02/26 04:44:06;;;;;;;0.38;0.10;;;8.20;96.70;;;;;;4985836;28;20042;-80
2022/02/26 04:46:34;;;;;;;0.30;0.10;;;8.20;96.70;;;;;;4996893;28;20389;-80
2022/02/26 04:49:02;;;;;;;1.33;0.20;;;8.30;96.70;;;;;;4965346;28;20144;-80
2022/02/26 04:51:30;;;;;;;0.30;0.10;;;8.30;96.70;;;;;;4966637;28;20054;-79
2022/02/26 04:53:59;;;;;;;1.63;0.10;;;8.20;96.70;;;;;;4984457;28;20512;-80
2022/02/26 04:56:28;;;;;;;1.55;0.13;;;8.30;96.70;;;;;;4984809;28;20456;-80
2022/02/26 04:58:58;;;;;;;0.20;0.08;;;8.30;96.70;;;;;;4997878;28;20100;-80
2022/02/26 05:01:26;;;;;;;0.82;0.10;;;8.30;96.70;;;;;;4996605;28;20193;-80
2022/02/26 05:03:55;;;;;;;0.85;0.10;;;8.30;96.70;;;;;;4984510;28;20054;-80
2022/02/26 05:06:23;;;;;;;0.75;0.10;;;8.30;96.70;;;;;;4983386;28;20770;-80
2022/02/26 05:08:51;;;;;;;0.30;0.10;;;8.30;96.70;;;;;;4980555;28;20046;-80
2022/02/26 05:11:19;;;;;;;2.95;0.40;;;8.30;96.70;;;;;;4986073;28;20046;-80
2022/02/26 05:13:49;;;;;;;0.55;0.10;;;8.30;96.70;;;;;;4981310;28;20041;-80
2022/02/26 05:16:17;;;;;;;1.27;0.30;;;8.20;96.70;;;;;;4983932;28;20130;-81
2022/02/26 05:18:46;;;;;;;0.65;0.10;;;8.30;96.70;;;;;;4983704;28;20475;-80
2022/02/26 05:21:14;;;;;;;1.65;0.20;;;8.30;96.70;;;;;;4986039;28;20038;-80
2022/02/26 05:23:42;;;;;;;0.88;0.15;;;8.30;96.70;;;;;;4980517;28;20686;-80
2022/02/26 05:26:11;;;;;;;1.27;0.22;;;8.40;96.70;;;;;;4986189;28;20034;-81
2022/02/26 05:28:40;;;;;;;3.22;0.25;;;8.40;96.70;;;;;;4982798;28;20050;-80
2022/02/26 05:31:09;;;;;;;1.60;0.30;;;8.40;96.70;;;;;;4982126;28;20053;-80
2022/02/26 05:33:38;;;;;;;0.52;0.20;;;8.40;96.70;;;;;;4981242;28;20374;-80
2022/02/26 05:36:10;;;;;;;1.38;0.20;;;8.40;96.70;;;;;;4983120;28;20128;-80
2022/02/26 05:38:38;;;;;;;1.13;0.25;;;8.40;96.70;;;;;;4983835;28;20053;-80
2022/02/26 05:41:07;;;;;;;3.20;0.50;;;8.40;96.70;;;;;;4984453;28;20049;-80
2022/02/26 05:43:35;;;;;;;0.75;0.40;;;8.40;96.70;;;;;;4986458;28;20158;-80
2022/02/26 05:46:03;;;;;;;1.40;0.20;;;8.40;96.70;;;;;;4985497;28;20417;-79
2022/02/26 05:48:33;;;;;;;2.47;0.30;;;8.40;96.70;;;;;;4997431;28;20048;-78
2022/02/26 05:51:02;;;;;;;1.13;0.15;;;8.40;96.70;;;;;;4980217;28;20452;-78
2022/02/26 05:53:30;;;;;;;1.52;0.40;;;8.40;96.70;;;;;;4983559;28;20042;-80
2022/02/26 05:55:58;;;;;;;1.20;0.30;;;8.40;96.70;;;;;;4983999;28;20494;-80
2022/02/26 05:58:26;;;;;;;0.68;0.15;;;8.40;96.70;;;;;;4982947;28;20047;-80
2022/02/26 06:00:55;;;;;;;0.38;0.10;;;8.40;96.70;;;;;;4983856;28;20042;-81
2022/02/26 06:03:23;;;;;;;0.82;0.32;;;8.40;96.70;;;;;;4985082;28;20034;-80
2022/02/26 06:05:54;;;;;;;1.27;0.22;;;8.40;96.70;;;;;;4981286;28;20051;-81
2022/02/26 06:08:22;;;;;;;2.45;0.30;;;8.50;96.70;;;;;;4996780;28;20105;-80
2022/02/26 06:10:50;;;;;;;0.52;0.20;;;8.40;96.70;;;;;;4983165;28;20045;-80
2022/02/26 06:13:19;;;;;;;1.65;0.30;;;8.40;96.70;;;;;;4981896;28;20711;-79
2022/02/26 06:15:47;;;;;;;1.77;0.30;;;8.40;96.70;;;;;;4977923;28;20050;-78
2022/02/26 06:18:16;;;;;;;2.35;0.35;;;8.40;96.70;;;;;;4981558;28;20132;-78
2022/02/26 06:20:47;;;;;;;2.72;0.38;;;8.40;96.70;;;;;;4988892;28;20034;-78
2022/02/26 06:23:17;;;;;;;0.40;0.10;;;8.40;96.70;;;;;;4999466;28;20129;-78
2022/02/26 06:25:46;;;;;;;2.17;0.20;;;8.50;96.70;;;;;;4988408;28;20054;-79
2022/02/26 06:28:14;;;;;;;0.80;0.20;;;8.50;96.70;;;;;;4986475;28;20039;-78
2022/02/26 06:30:43;;;;;;;0.57;0.17;;;8.50;96.70;;;;;;4968061;28;20138;-78
2022/02/26 06:33:13;;;;;;;2.53;0.30;;;8.50;96.70;;;;;;4986938;28;20042;-78
2022/02/26 06:35:46;;;;;;;1.85;0.38;;;8.50;96.70;;;;;;4999722;28;20045;-79
2022/02/26 06:38:15;;;;;;;3.28;0.40;;;8.50;96.70;;;;;;4992646;28;20245;-78
2022/02/26 06:40:45;;;;;;;2.17;0.30;;;8.50;96.70;;;;;;4986746;28;20038;-78
2022/02/26 06:43:13;;;;;;;2.10;0.20;;;8.50;96.70;;;;;;5002071;28;20057;-78
2022/02/26 06:45:42;;;;;;;0.52;0.20;;;8.50;96.70;;;;;;4989395;28;20117;-79
2022/02/26 06:48:10;;;;;;;1.88;0.22;;;8.50;96.70;;;;;;4986732;28;20582;-79
2022/02/26 06:50:39;;;;;;;0.88;0.20;;;8.50;96.70;;;;;;4989920;28;20396;-78
2022/02/26 06:53:07;;;;;;;1.27;0.20;;;8.50;96.70;;;;;;4984658;28;20170;-79
2022/02/26 06:55:36;;;;;;;2.55;0.30;;;8.50;96.70;;;;;;4998755;28;20465;-79
2022/02/26 06:58:05;;;;;;;1.13;0.30;;;8.50;96.70;;;;;;4987403;28;20043;-80
2022/02/26 07:00:34;;;;;;;1.77;0.25;;;8.50;96.70;;;;;;4981123;28;20077;-80
2022/02/26 07:03:02;;;;;;;0.43;0.30;;;8.60;96.70;;;;;;4989908;28;20038;-80
2022/02/26 07:05:31;;;;;;;2.40;0.20;;;8.60;96.70;;;;;;4982987;28;20046;-81
2022/02/26 07:08:00;;;;;;;1.65;0.20;;;8.60;96.70;;;;;;4987402;28;20131;-80
2022/02/26 07:10:29;;;;;;;1.23;0.50;;;8.60;96.70;;;;;;4984183;28;20050;-83
2022/02/26 07:12:57;;;;;;;1.63;0.35;;;8.60;96.70;;;;;;4989097;28;20048;-83
2022/02/26 07:15:27;;;;;;;2.20;0.77;;;8.50;96.70;;;;;;4992585;28;20053;-82
2022/02/26 07:17:56;;;;;;;3.00;0.88;;;8.50;96.70;;;;;;4987200;28;20046;-82
2022/02/26 07:20:24;;;;;;;2.45;1.25;;;8.50;96.70;;;;;;4987278;28;20535;-81
2022/02/26 07:22:52;;;;;;;2.67;1.15;;;8.60;96.70;;;;;;4985443;28;20073;-80
2022/02/26 07:25:21;;;;;;;2.05;0.55;;;8.60;96.70;;;;;;4989723;28;20065;-81
2022/02/26 07:27:50;;;;;;;3.97;0.82;;;8.60;96.70;;;;;;4981902;28;20583;-79
2022/02/26 07:30:18;;;;;;;2.58;0.68;;;8.70;96.70;;;;;;4984547;28;20404;-80
2022/02/26 07:32:48;;;;;;;1.15;0.52;;;8.70;96.70;;;;;;4981478;28;20042;-78
2022/02/26 07:35:17;;;;;;;2.25;0.68;;;8.80;96.70;;;;;;4982570;28;20042;-78
2022/02/26 07:37:45;;;;;;;2.33;0.50;;;8.80;96.70;;;;;;4983081;28;20089;-77
2022/02/26 07:40:14;;;;;;;1.83;0.65;;;8.80;96.70;;;;;;4982634;28;20112;-78
2022/02/26 07:42:48;;;;;;;4.15;0.50;;;8.80;96.70;;;;;;4996135;28;20511;-77
2022/02/26 07:45:17;;;;;;;2.22;0.30;;;8.90;96.70;;;;;;4984468;28;20046;-78
2022/02/26 07:47:48;;;;;;;2.85;0.60;;;9.00;96.70;;;;;;4983194;28;20042;-78
2022/02/26 07:50:16;;;;;;;4.20;0.40;;;9.00;96.70;;;;;;4983904;28;20635;-78
2022/02/26 07:52:45;;;;;;;2.85;0.40;;;9.00;96.70;;;;;;4986878;28;20372;-80
2022/02/26 07:55:13;;;;;;;2.35;0.47;;;9.00;96.70;;;;;;4986342;28;20034;-80
2022/02/26 07:57:42;;;;;;;1.73;0.43;;;9.00;96.70;;;;;;4986001;28;20129;-80
2022/02/26 08:00:12;;;;;;;1.05;0.40;;;9.00;96.70;;;;;;4983924;28;20522;-81
2022/02/26 08:02:40;;;;;;;2.20;0.60;;;9.00;96.70;;;;;;4983126;28;20910;-80
2022/02/26 08:05:11;;;;;;;3.70;0.70;;;9.10;96.70;;;;;;5004674;28;20104;-81
2022/02/26 08:07:45;;;;;;;1.27;0.40;;;9.10;96.70;;;;;;4984265;28;20057;-79
2022/02/26 08:10:14;;;;;;;2.50;0.32;;;9.10;96.70;;;;;;4997806;28;20054;-79
2022/02/26 08:12:44;;;;;;;0.73;0.30;;;9.10;96.70;;;;;;4982627;28;20058;-78
2022/02/26 08:15:13;;;;;;;1.58;0.40;;;9.10;96.70;;;;;;4984323;28;20050;-80
2022/02/26 08:17:44;;;;;;;1.80;0.50;;;9.10;96.70;;;;;;4982348;28;20080;-80
2022/02/26 08:20:15;;;;;;;1.60;0.40;;;9.10;96.70;;;;;;4981710;28;20486;-82
2022/02/26 08:22:45;;;;;;;0.93;0.35;;;9.10;96.70;;;;;;4979747;28;20046;-83
2022/02/26 08:25:13;;;;;;;1.02;0.30;;;9.20;96.70;;;;;;4995706;28;20042;-80
2022/02/26 08:27:42;;;;;;;1.45;0.50;;;9.20;96.70;;;;;;4983134;28;20132;-80
2022/02/26 08:30:13;;;;;;;1.67;0.43;;;9.20;96.70;;;;;;4983429;28;20153;-80
2022/02/26 08:32:43;;;;;;;1.33;0.40;;;9.20;96.70;;;;;;5003626;28;20049;-80
2022/02/26 08:35:14;;;;;;;1.25;0.20;;;9.20;96.70;;;;;;4988359;28;20530;-80
2022/02/26 08:37:46;;;;;;;3.97;0.65;;;9.20;96.70;;;;;;4982319;28;20057;-81
2022/02/26 08:40:16;;;;;;;1.27;0.43;;;9.20;96.70;;;;;;4995751;28;20132;-80
2022/02/26 08:42:45;;;;;;;1.40;0.40;;;9.30;96.70;;;;;;4987245;28;20042;-81
2022/02/26 08:45:15;;;;;;;1.23;0.40;;;9.30;96.70;;;;;;4996718;28;20058;-79
2022/02/26 08:47:44;;;;;;;1.77;0.55;;;9.30;96.70;;;;;;4986506;28;20047;-80
2022/02/26 08:50:17;;;;;;;3.10;0.90;;;9.30;96.70;;;;;;4998287;28;20153;-79
2022/02/26 08:52:46;;;;;;;2.05;0.90;;;9.30;96.70;;;;;;4985385;28;20092;-80
2022/02/26 08:55:14;;;;;;;5.07;0.70;;;9.30;96.70;;;;;;4983294;28;20050;-80
2022/02/26 08:57:43;;;;;;;3.78;0.95;;;9.30;96.70;;;;;;4983998;28;20052;-80
2022/02/26 09:00:12;;;;;;;2.28;0.60;;;9.30;96.70;;;;;;4982152;28;20042;-79
2022/02/26 09:02:40;;;;;;;1.58;0.50;;;9.30;96.70;;;;;;4995639;28;20571;-79
2022/02/26 09:05:09;;;;;;;1.70;0.70;;;9.30;96.70;;;;;;4979434;28;20133;-78
2022/02/26 09:07:40;;;;;;;1.73;0.80;;;9.30;96.70;;;;;;4984182;28;20100;-80
2022/02/26 09:10:10;;;;;;;4.13;0.47;;;9.40;96.70;;;;;;4980596;28;20184;-80
2022/02/26 09:12:39;;;;;;;2.28;0.45;;;9.40;96.70;;;;;;4995970;28;20512;-80
2022/02/26 09:15:11;;;;;;;2.33;0.43;;;9.40;96.70;;;;;;4985934;28;20057;-80
2022/02/26 09:17:39;;;;;;;1.85;0.40;;;9.40;96.70;;;;;;4985925;28;20105;-79
2022/02/26 09:20:10;;;;;;;2.35;0.40;;;9.40;96.70;;;;;;4997490;28;20521;-80
2022/02/26 09:22:41;;;;;;;2.20;0.50;;;9.40;96.70;;;;;;4980518;28;20050;-80
2022/02/26 09:25:11;;;;;;;1.50;0.30;;;9.50;96.70;;;;;;4981827;28;20053;-79
2022/02/26 09:27:40;;;;;;;0.98;0.40;;;9.50;96.70;;;;;;4997096;28;20544;-80
2022/02/26 09:30:10;;;;;;;2.08;0.30;;;9.50;96.70;;;;;;4983673;28;20100;-80
2022/02/26 09:32:38;;;;;;;2.10;0.40;;;9.50;96.70;;;;;;4986574;28;20511;-79
2022/02/26 09:35:09;;;;;;;2.78;0.38;;;9.50;96.70;;;;;;4984118;28;20069;-80
2022/02/26 09:37:39;;;;;;;1.58;0.45;;;9.50;96.70;;;;;;4994797;28;20570;-81
2022/02/26 09:40:12;;;;;;;3.13;0.40;;;9.50;96.70;;;;;;4984021;28;20042;-81
2022/02/26 09:42:41;;;;;;;2.33;0.80;;;9.50;96.70;;;;;;4997534;28;20057;-81
2022/02/26 09:45:10;;;;;;;2.50;1.13;;;9.50;96.70;;;;;;4984675;28;20399;-82
2022/02/26 09:47:38;;;;;;;1.00;0.30;;;9.60;96.70;;;;;;4997306;28;20048;-80
2022/02/26 09:50:08;;;;;;;1.08;0.43;;;9.70;96.70;;;;;;4984907;28;20046;-82
2022/02/26 09:52:42;;;;;;;2.53;0.47;;;9.80;96.70;;;;;;4982304;28;20038;-81
2022/02/26 09:55:10;;;;;;;1.63;0.40;;;9.90;96.70;;;;;;4979101;28;20070;-81
2022/02/26 09:57:39;;;;;;;1.17;0.30;;;9.90;96.70;;;;;;4994756;28;20407;-81
2022/02/26 10:00:10;;;;;;;1.40;0.20;;;10.00;96.70;;;;;;4987330;28;20046;-81
2022/02/26 10:02:39;;;;;;;1.55;0.50;;;10.10;96.70;;;;;;5000854;28;20042;-83
2022/02/26 10:05:09;;;;;;;2.55;0.60;;;10.20;96.70;;;;;;4987231;28;20045;-81
2022/02/26 10:07:41;;;;;;;0.77;0.28;;;10.30;96.70;;;;;;4999356;28;20050;-81
2022/02/26 10:10:16;;;;;;;2.25;0.40;;;10.30;96.70;;;;;;4988415;28;20538;-81
2022/02/26 10:12:45;;;;;;;2.33;0.63;;;10.30;96.70;;;;;;4979611;28;20053;-80
2022/02/26 10:15:24;;;;;;;1.80;0.57;;;10.40;96.70;;;;;;4994982;28;20057;-81
2022/02/26 10:18:05;;;;;;;2.15;0.32;;;10.50;96.70;;;;;;4985566;28;20054;-81
2022/02/26 10:20:34;;;;;;;1.02;0.40;;;10.60;96.70;;;;;;4980097;28;20644;-81
2022/02/26 10:23:03;;;;;;;1.52;0.38;;;10.80;96.70;;;;;;4995535;28;20142;-81
2022/02/26 10:25:32;;;;;;;1.85;0.57;;;10.90;96.70;;;;;;4982519;28;20069;-81
2022/02/26 10:28:02;;;;;;;1.00;0.40;;;11.00;96.70;;;;;;4981120;28;20129;-83
2022/02/26 10:30:37;;;;;;;2.50;0.40;;;11.10;96.70;;;;;;4997438;28;20429;-82
2022/02/26 10:33:07;;;;;;;0.85;0.30;;;11.10;96.70;;;;;;4998421;28;20394;-83
2022/02/26 10:35:46;;;;;;;1.48;0.40;;;11.10;96.70;;;;;;4980055;28;20050;-83
2022/02/26 10:38:22;;;;;;;1.58;0.40;;;11.10;96.70;;;;;;4983507;28;20046;-84
2022/02/26 10:40:54;;;;;;;1.10;0.28;;;11.10;96.70;;;;;;4997941;28;20436;-81
2022/02/26 10:43:44;;;;;;;1.95;0.40;;;11.10;96.40;;;;;;4980203;28;20097;-82
2022/02/26 10:46:26;;;;;;;2.63;1.55;;;11.10;95.80;;;;;;4995276;28;20165;-81
2022/02/26 10:48:56;;;;;;;2.17;0.60;;;11.20;96.10;;;;;;4992877;28;20054;-81
2022/02/26 10:51:26;;;;;;;1.17;0.40;;;11.20;95.90;;;;;;4997123;28;20042;-81
2022/02/26 10:53:56;;;;;;;1.02;0.40;;;11.30;96.50;;;;;;4981033;28;20074;-80
2022/02/26 10:56:33;;;;;;;1.38;0.30;;;11.40;95.90;;;;;;4979437;28;20332;-79
2022/02/26 10:59:02;;;;;;;1.70;0.30;;;11.20;95.50;;;;;;4981456;28;20072;-80
2022/02/26 11:01:31;;;;;;;1.95;0.65;;;11.20;96.00;;;;;;4981220;28;20132;-78
2022/02/26 11:04:01;;;;;;;2.67;0.90;;;11.20;95.80;;;;;;4993061;28;20839;-79
2022/02/26 11:06:31;;;;;;;3.55;1.10;;;11.20;95.90;;;;;;4987468;28;20050;-79
2022/02/26 11:09:02;;;;;;;3.08;1.17;;;11.10;95.60;;;;;;4986289;28;20070;-78
2022/02/26 11:11:31;;;;;;;2.05;0.65;;;11.10;96.70;;;;;;4999540;28;20447;-80
2022/02/26 11:14:02;;;;;;;1.25;0.50;;;11.00;96.70;;;;;;4985484;28;20053;-78
2022/02/26 11:16:34;;;;;;;1.50;0.40;;;10.90;96.70;;;;;;5001480;28;20050;-77
2022/02/26 11:19:03;;;;;;;1.45;0.30;;;10.90;96.70;;;;;;4987506;28;20124;-80
2022/02/26 11:21:32;;;;;;;2.13;0.45;;;10.90;96.70;;;;;;4985042;28;20476;-80
2022/02/26 11:24:05;;;;;;;1.55;0.38;;;10.90;96.70;;;;;;4986366;28;20049;-79
2022/02/26 11:26:34;;;;;;;1.73;0.30;;;10.90;96.70;;;;;;4984770;28;20070;-83
2022/02/26 11:29:05;;;;;;;1.00;0.47;;;11.10;96.70;;;;;;4981983;28;20451;-80
2022/02/26 11:31:40;;;;;;;2.20;0.93;;;11.30;96.70;;;;;;4999895;28;20057;-81
2022/02/26 11:34:09;;;;;;;2.67;1.60;;;11.40;96.70;;;;;;4984713;28;20345;-82
2022/02/26 11:36:48;;;;;;;1.95;0.70;;;11.50;96.70;;;;;;5000833;28;20099;-80
2022/02/26 11:39:32;;;;;;;1.60;0.50;;;11.70;96.70;;;;;;4995642;28;20061;-82
2022/02/26 11:42:24;;;;;;;0.95;0.45;;;12.00;96.70;;;;;;4984437;28;20070;-81
2022/02/26 11:44:55;;;;;;;1.38;0.20;;;11.90;96.70;;;;;;4970044;28;20535;-83
2022/02/26 11:47:30;;;;;;;0.82;0.30;;;11.90;96.70;;;;;;4986506;28;20124;-80
2022/02/26 11:50:01;;;;;;;1.65;0.35;;;11.90;96.70;;;;;;4988626;28;20065;-80
2022/02/26 11:52:51;;;;;;;1.08;0.30;;;12.00;96.70;;;;;;4987961;28;20463;-81
2022/02/26 11:55:24;;;;;;;1.55;0.57;;;12.10;96.70;;;;;;4987499;28;20060;-80
2022/02/26 11:57:55;;;;;;;0.60;0.28;;;12.20;96.70;;;;;;4998327;28;20058;-81
2022/02/26 12:00:23;;;;;;;1.58;0.30;;;12.20;96.70;;;;;;4986426;28;20537;-83
2022/02/26 12:03:28;;;;;;;1.63;0.30;;;11.80;96.10;;;;;;4983340;28;20042;-81
2022/02/26 12:06:16;;;;;;;0.85;0.32;;;11.50;96.70;;;;;;4985118;28;20050;-82
2022/02/26 12:08:46;;;;;;;1.83;0.73;;;11.50;96.50;;;;;;4983716;28;20408;-82
2022/02/26 12:11:32;;;;;;;1.20;0.50;;;11.40;96.50;;;;;;4987441;28;20456;-83
2022/02/26 12:14:02;;;;;;;3.00;0.70;;;11.30;96.60;;;;;;4989832;28;20495;-80
2022/02/26 12:16:37;;;;;;;1.08;0.47;;;11.20;96.40;;;;;;4983391;28;20041;-79
2022/02/26 12:19:08;;;;;;;1.85;0.50;;;11.30;96.70;;;;;;4985195;28;20399;-80
2022/02/26 12:21:42;;;;;;;1.35;0.30;;;11.40;96.70;;;;;;4983419;28;20141;-80
2022/02/26 12:24:15;;;;;;;0.82;0.30;;;11.50;96.70;;;;;;4997655;28;20046;-81
2022/02/26 12:26:58;;;;;;;0.73;0.30;;;11.50;96.70;;;;;;4996502;28;20093;-82
2022/02/26 12:29:54;;;;;;;1.65;0.30;;;11.50;96.70;;;;;;4998868;28;20528;-81
2022/02/26 12:32:24;;;;;;;0.70;0.40;;;11.80;96.70;;;;;;4984667;28;20033;-80
2022/02/26 12:35:04;;;;;;;2.08;0.50;;;12.10;96.30;;;;;;4991834;28;20463;-80
2022/02/26 12:37:34;;;;;;;1.50;0.70;;;12.40;96.00;;;;;;5003068;28;20050;-81
2022/02/26 12:40:28;;;;;;;2.67;0.50;;;12.50;95.70;;;;;;4983800;28;20046;-82
2022/02/26 12:43:04;;;;;;;1.05;0.73;;;12.60;94.30;;;;;;4983662;28;20373;-81
2022/02/26 12:45:39;;;;;;;0.93;0.37;;;12.60;94.00;;;;;;4997459;28;20153;-82
2022/02/26 12:48:09;;;;;;;0.65;0.30;;;12.40;93.40;;;;;;4979413;28;20047;-80
2022/02/26 12:50:38;;;;;;;1.67;0.50;;;12.10;93.50;;;;;;4983469;28;20448;-79
2022/02/26 12:53:08;;;;;;;0.93;0.32;;;12.00;94.10;;;;;;4987336;28;20046;-79
2022/02/26 12:55:36;;;;;;;2.28;0.30;;;11.90;94.10;;;;;;4988034;28;20034;-84
2022/02/26 12:58:06;;;;;;;4.40;0.43;;;12.10;93.10;;;;;;4997912;28;20500;-80
2022/02/26 13:00:35;;;;;;;1.30;0.45;;;11.70;92.00;;;;;;4996983;28;20575;-81
2022/02/26 13:03:09;;;;;;;1.27;0.40;;;11.90;92.60;;;;;;4985706;28;20034;-79
2022/02/26 13:05:40;;;;;;;2.67;1.15;;;12.10;93.00;;;;;;4985111;28;20049;-78
2022/02/26 13:08:13;;;;;;;1.05;0.52;;;12.30;92.50;;;;;;4999940;28;20054;-77
2022/02/26 13:10:44;;;;;;;3.25;0.40;;;12.30;92.40;;;;;;4997347;28;20129;-78